sensor_id;sensor_type;location;lat;lon;timestamp;P1;durP1;ratioP1;P2;durP2;ratioP2
60492;SDS011;46341;51.290;-2.474;2023-03-16T00:01:40;17.75;;;5.03;;
60492;SDS011;46341;51.290;-2.474;2023-03-16T00:04:06;19.38;;;6.28;;
60492;SDS011;46341;51.290;-2.474;2023-03-16T00:06:32;17.27;;;6.55;;
60492;SDS011;46341;51.290;-2.474;2023-03-16T00:08:59;17.83;;;6.05;;
60492;SDS011;46341;51.290;-2.474;2023-03-16T00:11:25;15.98;;;5.78;;
60492;SDS011;46341;51.290;-2.474;2023-03-16T00:13:52;15.07;;;6.35;;
60492;SDS011;46341;51.290;-2.474;2023-03-16T00:16:18;20.65;;;6.82;;
60492;SDS011;46341;51.290;-2.474;2023-03-16T00:18:45;24.50;;;6.85;;
60492;SDS011;46341;51.290;-2.474;2023-03-16T00:21:11;25.15;;;6.57;;
60492;SDS011;46341;51.290;-2.474;2023-03-16T00:23:38;18.80;;;6.18;;
60492;SDS011;46341;51.290;-2.474;2023-03-16T00:26:06;19.23;;;5.82;;
60492;SDS011;46341;51.290;-2.474;2023-03-16T00:28:32;17.63;;;6.10;;
60492;SDS011;46341;51.290;-2.474;2023-03-16T00:33:26;18.50;;;5.40;;
60492;SDS011;46341;51.290;-2.474;2023-03-16T00:35:53;19.25;;;5.43;;
60492;SDS011;46341;51.290;-2.474;2023-03-16T00:38:31;19.02;;;5.53;;
60492;SDS011;46341;51.290;-2.474;2023-03-16T00:40:57;13.15;;;4.57;;
60492;SDS011;46341;51.290;-2.474;2023-03-16T00:43:24;15.23;;;4.88;;
60492;SDS011;46341;51.290;-2.474;2023-03-16T00:45:58;14.95;;;4.97;;
60492;SDS011;46341;51.290;-2.474;2023-03-16T00:48:26;19.45;;;4.50;;
60492;SDS011;46341;51.290;-2.474;2023-03-16T00:50:52;9.50;;;4.45;;
60492;SDS011;46341;51.290;-2.474;2023-03-16T00:53:19;11.55;;;4.05;;
60492;SDS011;46341;51.290;-2.474;2023-03-16T00:55:47;15.43;;;3.90;;
60492;SDS011;46341;51.290;-2.474;2023-03-16T00:58:13;14.13;;;3.75;;
60492;SDS011;46341;51.290;-2.474;2023-03-16T01:00:40;12.02;;;3.25;;
60492;SDS011;46341;51.290;-2.474;2023-03-16T01:03:06;15.25;;;4.25;;
60492;SDS011;46341;51.290;-2.474;2023-03-16T01:05:32;15.43;;;3.60;;
60492;SDS011;46341;51.290;-2.474;2023-03-16T01:07:59;14.13;;;3.60;;
60492;SDS011;46341;51.290;-2.474;2023-03-16T01:10:27;8.90;;;2.67;;
60492;SDS011;46341;51.290;-2.474;2023-03-16T01:12:54;15.50;;;3.70;;
60492;SDS011;46341;51.290;-2.474;2023-03-16T01:15:21;9.68;;;3.78;;
60492;SDS011;46341;51.290;-2.474;2023-03-16T01:17:47;13.60;;;4.07;;
60492;SDS011;46341;51.290;-2.474;2023-03-16T01:20:14;13.52;;;4.28;;
60492;SDS011;46341;51.290;-2.474;2023-03-16T01:22:44;15.73;;;4.80;;
60492;SDS011;46341;51.290;-2.474;2023-03-16T01:25:11;18.23;;;5.63;;
60492;SDS011;46341;51.290;-2.474;2023-03-16T01:27:37;14.48;;;4.60;;
60492;SDS011;46341;51.290;-2.474;2023-03-16T01:30:04;15.30;;;5.70;;
60492;SDS011;46341;51.290;-2.474;2023-03-16T01:32:31;19.48;;;4.90;;
60492;SDS011;46341;51.290;-2.474;2023-03-16T01:34:58;17.75;;;6.07;;
60492;SDS011;46341;51.290;-2.474;2023-03-16T01:37:24;19.73;;;5.57;;
60492;SDS011;46341;51.290;-2.474;2023-03-16T01:39:50;18.40;;;5.25;;
60492;SDS011;46341;51.290;-2.474;2023-03-16T01:42:17;14.70;;;4.93;;
60492;SDS011;46341;51.290;-2.474;2023-03-16T01:44:53;20.60;;;5.30;;
60492;SDS011;46341;51.290;-2.474;2023-03-16T01:47:20;20.45;;;5.55;;
60492;SDS011;46341;51.290;-2.474;2023-03-16T01:49:48;20.45;;;5.65;;
60492;SDS011;46341;51.290;-2.474;2023-03-16T01:52:18;18.02;;;5.63;;
60492;SDS011;46341;51.290;-2.474;2023-03-16T01:57:43;24.15;;;6.35;;
60492;SDS011;46341;51.290;-2.474;2023-03-16T02:00:12;18.95;;;5.13;;
60492;SDS011;46341;51.290;-2.474;2023-03-16T02:02:48;20.08;;;5.90;;
60492;SDS011;46341;51.290;-2.474;2023-03-16T02:05:15;17.88;;;5.22;;
60492;SDS011;46341;51.290;-2.474;2023-03-16T02:07:48;17.58;;;4.80;;
60492;SDS011;46341;51.290;-2.474;2023-03-16T02:10:16;14.20;;;4.93;;
60492;SDS011;46341;51.290;-2.474;2023-03-16T02:12:43;19.67;;;5.97;;
60492;SDS011;46341;51.290;-2.474;2023-03-16T02:15:11;15.32;;;4.97;;
60492;SDS011;46341;51.290;-2.474;2023-03-16T02:17:38;19.67;;;6.00;;
60492;SDS011;46341;51.290;-2.474;2023-03-16T02:22:49;20.08;;;6.35;;
60492;SDS011;46341;51.290;-2.474;2023-03-16T02:25:20;20.15;;;6.32;;
60492;SDS011;46341;51.290;-2.474;2023-03-16T02:30:14;22.40;;;6.82;;
60492;SDS011;46341;51.290;-2.474;2023-03-16T02:32:41;18.20;;;6.03;;
60492;SDS011;46341;51.290;-2.474;2023-03-16T02:35:09;19.80;;;5.88;;
60492;SDS011;46341;51.290;-2.474;2023-03-16T02:37:35;15.82;;;5.47;;
60492;SDS011;46341;51.290;-2.474;2023-03-16T02:40:12;15.07;;;5.28;;
60492;SDS011;46341;51.290;-2.474;2023-03-16T02:42:41;17.83;;;6.32;;
60492;SDS011;46341;51.290;-2.474;2023-03-16T02:45:08;15.05;;;5.43;;
60492;SDS011;46341;51.290;-2.474;2023-03-16T02:50:02;21.10;;;6.97;;
60492;SDS011;46341;51.290;-2.474;2023-03-16T02:52:35;17.77;;;6.13;;
60492;SDS011;46341;51.290;-2.474;2023-03-16T02:55:02;17.75;;;5.95;;
60492;SDS011;46341;51.290;-2.474;2023-03-16T02:57:29;23.65;;;6.25;;
60492;SDS011;46341;51.290;-2.474;2023-03-16T02:59:56;20.20;;;5.63;;
60492;SDS011;46341;51.290;-2.474;2023-03-16T03:02:23;23.10;;;5.78;;
60492;SDS011;46341;51.290;-2.474;2023-03-16T03:04:49;17.60;;;5.38;;
60492;SDS011;46341;51.290;-2.474;2023-03-16T03:07:20;18.95;;;6.40;;
60492;SDS011;46341;51.290;-2.474;2023-03-16T03:09:46;17.05;;;5.85;;
60492;SDS011;46341;51.290;-2.474;2023-03-16T03:12:13;16.95;;;4.82;;
60492;SDS011;46341;51.290;-2.474;2023-03-16T03:14:39;10.43;;;4.47;;
60492;SDS011;46341;51.290;-2.474;2023-03-16T03:17:05;12.40;;;3.30;;
60492;SDS011;46341;51.290;-2.474;2023-03-16T03:19:32;8.55;;;2.88;;
60492;SDS011;46341;51.290;-2.474;2023-03-16T03:21:59;7.43;;;2.85;;
60492;SDS011;46341;51.290;-2.474;2023-03-16T03:24:29;6.78;;;3.10;;
60492;SDS011;46341;51.290;-2.474;2023-03-16T03:26:56;9.57;;;3.35;;
60492;SDS011;46341;51.290;-2.474;2023-03-16T03:29:22;9.93;;;3.22;;
60492;SDS011;46341;51.290;-2.474;2023-03-16T03:31:48;12.18;;;3.60;;
60492;SDS011;46341;51.290;-2.474;2023-03-16T03:34:15;15.20;;;4.95;;
60492;SDS011;46341;51.290;-2.474;2023-03-16T03:36:41;14.45;;;4.03;;
60492;SDS011;46341;51.290;-2.474;2023-03-16T03:39:07;13.77;;;4.10;;
60492;SDS011;46341;51.290;-2.474;2023-03-16T03:41:34;9.23;;;3.90;;
60492;SDS011;46341;51.290;-2.474;2023-03-16T03:44:01;13.05;;;4.50;;
60492;SDS011;46341;51.290;-2.474;2023-03-16T03:46:27;11.95;;;3.90;;
60492;SDS011;46341;51.290;-2.474;2023-03-16T03:48:54;11.27;;;4.43;;
60492;SDS011;46341;51.290;-2.474;2023-03-16T03:51:20;16.27;;;4.65;;
60492;SDS011;46341;51.290;-2.474;2023-03-16T03:53:46;15.65;;;5.30;;
60492;SDS011;46341;51.290;-2.474;2023-03-16T03:56:13;14.07;;;5.15;;
60492;SDS011;46341;51.290;-2.474;2023-03-16T03:58:39;11.57;;;4.40;;
60492;SDS011;46341;51.290;-2.474;2023-03-16T04:01:06;17.52;;;5.30;;
60492;SDS011;46341;51.290;-2.474;2023-03-16T04:03:32;15.90;;;4.85;;
60492;SDS011;46341;51.290;-2.474;2023-03-16T04:05:58;16.15;;;4.95;;
60492;SDS011;46341;51.290;-2.474;2023-03-16T04:08:25;12.32;;;5.32;;
60492;SDS011;46341;51.290;-2.474;2023-03-16T04:10:51;14.27;;;5.00;;
60492;SDS011;46341;51.290;-2.474;2023-03-16T04:13:18;17.20;;;4.40;;
60492;SDS011;46341;51.290;-2.474;2023-03-16T04:15:44;17.98;;;3.85;;
60492;SDS011;46341;51.290;-2.474;2023-03-16T04:18:12;14.30;;;3.63;;
60492;SDS011;46341;51.290;-2.474;2023-03-16T04:20:38;11.35;;;3.05;;
60492;SDS011;46341;51.290;-2.474;2023-03-16T04:23:04;14.00;;;3.63;;
60492;SDS011;46341;51.290;-2.474;2023-03-16T04:25:31;13.43;;;3.50;;
60492;SDS011;46341;51.290;-2.474;2023-03-16T04:27:57;14.43;;;3.60;;
60492;SDS011;46341;51.290;-2.474;2023-03-16T04:30:24;11.38;;;3.55;;
60492;SDS011;46341;51.290;-2.474;2023-03-16T04:32:50;15.48;;;3.47;;
60492;SDS011;46341;51.290;-2.474;2023-03-16T04:35:17;14.93;;;3.40;;
60492;SDS011;46341;51.290;-2.474;2023-03-16T04:37:44;15.90;;;3.47;;
60492;SDS011;46341;51.290;-2.474;2023-03-16T04:40:10;14.38;;;3.17;;
60492;SDS011;46341;51.290;-2.474;2023-03-16T04:42:43;17.08;;;3.42;;
60492;SDS011;46341;51.290;-2.474;2023-03-16T04:45:10;11.02;;;3.33;;
60492;SDS011;46341;51.290;-2.474;2023-03-16T04:47:37;13.80;;;3.72;;
60492;SDS011;46341;51.290;-2.474;2023-03-16T04:50:04;12.23;;;3.35;;
60492;SDS011;46341;51.290;-2.474;2023-03-16T04:52:31;13.48;;;4.35;;
60492;SDS011;46341;51.290;-2.474;2023-03-16T04:54:58;14.27;;;3.70;;
60492;SDS011;46341;51.290;-2.474;2023-03-16T04:57:24;16.42;;;4.13;;
60492;SDS011;46341;51.290;-2.474;2023-03-16T04:59:50;14.77;;;3.92;;
60492;SDS011;46341;51.290;-2.474;2023-03-16T05:02:17;17.60;;;4.45;;
60492;SDS011;46341;51.290;-2.474;2023-03-16T05:07:11;17.23;;;4.97;;
60492;SDS011;46341;51.290;-2.474;2023-03-16T05:09:37;15.55;;;4.07;;
60492;SDS011;46341;51.290;-2.474;2023-03-16T05:12:04;14.32;;;3.75;;
60492;SDS011;46341;51.290;-2.474;2023-03-16T05:14:30;12.95;;;4.22;;
60492;SDS011;46341;51.290;-2.474;2023-03-16T05:16:56;15.05;;;4.15;;
60492;SDS011;46341;51.290;-2.474;2023-03-16T05:19:23;11.93;;;4.78;;
60492;SDS011;46341;51.290;-2.474;2023-03-16T05:21:49;12.63;;;3.55;;
60492;SDS011;46341;51.290;-2.474;2023-03-16T05:24:16;13.88;;;3.80;;
60492;SDS011;46341;51.290;-2.474;2023-03-16T05:26:42;17.70;;;4.93;;
60492;SDS011;46341;51.290;-2.474;2023-03-16T05:29:08;15.13;;;4.95;;
60492;SDS011;46341;51.290;-2.474;2023-03-16T05:31:35;12.20;;;4.20;;
60492;SDS011;46341;51.290;-2.474;2023-03-16T05:36:29;14.88;;;4.30;;
60492;SDS011;46341;51.290;-2.474;2023-03-16T05:38:56;18.05;;;4.82;;
60492;SDS011;46341;51.290;-2.474;2023-03-16T05:41:23;20.80;;;4.50;;
60492;SDS011;46341;51.290;-2.474;2023-03-16T05:43:49;16.00;;;4.90;;
60492;SDS011;46341;51.290;-2.474;2023-03-16T05:46:16;15.63;;;4.63;;
60492;SDS011;46341;51.290;-2.474;2023-03-16T05:48:45;19.13;;;4.88;;
60492;SDS011;46341;51.290;-2.474;2023-03-16T05:51:12;20.05;;;4.53;;
60492;SDS011;46341;51.290;-2.474;2023-03-16T05:53:39;12.02;;;3.67;;
60492;SDS011;46341;51.290;-2.474;2023-03-16T05:56:05;20.02;;;3.85;;
60492;SDS011;46341;51.290;-2.474;2023-03-16T05:58:32;17.58;;;3.80;;
60492;SDS011;46341;51.290;-2.474;2023-03-16T06:00:59;14.82;;;3.65;;
60492;SDS011;46341;51.290;-2.474;2023-03-16T06:05:53;12.52;;;3.55;;
60492;SDS011;46341;51.290;-2.474;2023-03-16T06:08:19;16.20;;;4.32;;
60492;SDS011;46341;51.290;-2.474;2023-03-16T06:10:46;17.45;;;3.92;;
60492;SDS011;46341;51.290;-2.474;2023-03-16T06:13:13;13.60;;;4.65;;
60492;SDS011;46341;51.290;-2.474;2023-03-16T06:15:39;16.48;;;4.43;;
60492;SDS011;46341;51.290;-2.474;2023-03-16T06:18:06;15.95;;;4.55;;
60492;SDS011;46341;51.290;-2.474;2023-03-16T06:20:32;16.50;;;5.03;;
60492;SDS011;46341;51.290;-2.474;2023-03-16T06:22:59;15.73;;;4.88;;
60492;SDS011;46341;51.290;-2.474;2023-03-16T06:25:25;21.75;;;4.93;;
60492;SDS011;46341;51.290;-2.474;2023-03-16T06:27:51;16.95;;;4.75;;
60492;SDS011;46341;51.290;-2.474;2023-03-16T06:30:18;17.67;;;4.10;;
60492;SDS011;46341;51.290;-2.474;2023-03-16T06:32:44;16.38;;;4.60;;
60492;SDS011;46341;51.290;-2.474;2023-03-16T06:35:11;17.05;;;4.38;;
60492;SDS011;46341;51.290;-2.474;2023-03-16T06:37:38;22.38;;;4.50;;
60492;SDS011;46341;51.290;-2.474;2023-03-16T06:40:04;14.80;;;4.38;;
60492;SDS011;46341;51.290;-2.474;2023-03-16T06:42:31;17.00;;;4.43;;
60492;SDS011;46341;51.290;-2.474;2023-03-16T06:44:57;18.98;;;3.92;;
60492;SDS011;46341;51.290;-2.474;2023-03-16T06:47:24;15.73;;;3.90;;
60492;SDS011;46341;51.290;-2.474;2023-03-16T06:49:50;13.83;;;4.03;;
60492;SDS011;46341;51.290;-2.474;2023-03-16T06:52:19;15.98;;;3.60;;
60492;SDS011;46341;51.290;-2.474;2023-03-16T06:54:46;16.83;;;3.78;;
60492;SDS011;46341;51.290;-2.474;2023-03-16T06:57:12;14.18;;;4.00;;
60492;SDS011;46341;51.290;-2.474;2023-03-16T06:59:39;14.95;;;3.65;;
60492;SDS011;46341;51.290;-2.474;2023-03-16T07:02:05;16.10;;;3.83;;
60492;SDS011;46341;51.290;-2.474;2023-03-16T07:04:32;14.00;;;3.60;;
60492;SDS011;46341;51.290;-2.474;2023-03-16T07:06:59;11.68;;;3.35;;
60492;SDS011;46341;51.290;-2.474;2023-03-16T07:09:28;16.20;;;3.75;;
60492;SDS011;46341;51.290;-2.474;2023-03-16T07:11:54;14.20;;;3.78;;
60492;SDS011;46341;51.290;-2.474;2023-03-16T07:14:21;16.38;;;3.92;;
60492;SDS011;46341;51.290;-2.474;2023-03-16T07:16:48;14.77;;;4.32;;
60492;SDS011;46341;51.290;-2.474;2023-03-16T07:19:14;13.10;;;3.67;;
60492;SDS011;46341;51.290;-2.474;2023-03-16T07:21:41;15.10;;;4.07;;
60492;SDS011;46341;51.290;-2.474;2023-03-16T07:24:08;13.88;;;4.50;;
60492;SDS011;46341;51.290;-2.474;2023-03-16T07:26:34;14.98;;;3.28;;
60492;SDS011;46341;51.290;-2.474;2023-03-16T07:29:01;9.65;;;3.30;;
60492;SDS011;46341;51.290;-2.474;2023-03-16T07:31:30;15.05;;;4.07;;
60492;SDS011;46341;51.290;-2.474;2023-03-16T07:33:57;18.23;;;4.35;;
60492;SDS011;46341;51.290;-2.474;2023-03-16T07:36:24;14.02;;;3.80;;
60492;SDS011;46341;51.290;-2.474;2023-03-16T07:38:50;13.90;;;3.70;;
60492;SDS011;46341;51.290;-2.474;2023-03-16T07:41:17;15.02;;;3.22;;
60492;SDS011;46341;51.290;-2.474;2023-03-16T07:43:43;10.10;;;2.60;;
60492;SDS011;46341;51.290;-2.474;2023-03-16T07:46:10;13.48;;;3.28;;
60492;SDS011;46341;51.290;-2.474;2023-03-16T07:48:39;11.70;;;2.92;;
60492;SDS011;46341;51.290;-2.474;2023-03-16T07:51:05;12.88;;;3.30;;
60492;SDS011;46341;51.290;-2.474;2023-03-16T07:53:32;11.90;;;2.75;;
60492;SDS011;46341;51.290;-2.474;2023-03-16T07:55:58;14.05;;;3.17;;
60492;SDS011;46341;51.290;-2.474;2023-03-16T07:58:24;9.48;;;2.95;;
60492;SDS011;46341;51.290;-2.474;2023-03-16T08:00:51;11.05;;;2.60;;
60492;SDS011;46341;51.290;-2.474;2023-03-16T08:03:17;13.35;;;3.00;;
60492;SDS011;46341;51.290;-2.474;2023-03-16T08:05:43;13.48;;;3.13;;
60492;SDS011;46341;51.290;-2.474;2023-03-16T08:08:10;10.10;;;2.90;;
60492;SDS011;46341;51.290;-2.474;2023-03-16T08:10:36;9.40;;;2.90;;
60492;SDS011;46341;51.290;-2.474;2023-03-16T08:13:03;13.15;;;2.58;;
60492;SDS011;46341;51.290;-2.474;2023-03-16T08:15:32;11.93;;;2.70;;
60492;SDS011;46341;51.290;-2.474;2023-03-16T08:17:59;8.25;;;2.35;;
60492;SDS011;46341;51.290;-2.474;2023-03-16T08:20:27;8.75;;;2.67;;
60492;SDS011;46341;51.290;-2.474;2023-03-16T08:22:55;5.65;;;2.42;;
60492;SDS011;46341;51.290;-2.474;2023-03-16T08:25:21;8.10;;;2.55;;
60492;SDS011;46341;51.290;-2.474;2023-03-16T08:27:48;10.20;;;3.43;;
60492;SDS011;46341;51.290;-2.474;2023-03-16T08:30:15;7.32;;;2.00;;
60492;SDS011;46341;51.290;-2.474;2023-03-16T08:32:41;9.60;;;2.47;;
60492;SDS011;46341;51.290;-2.474;2023-03-16T08:35:10;9.75;;;2.78;;
60492;SDS011;46341;51.290;-2.474;2023-03-16T08:37:38;8.70;;;2.90;;
60492;SDS011;46341;51.290;-2.474;2023-03-16T08:40:05;13.73;;;3.10;;
60492;SDS011;46341;51.290;-2.474;2023-03-16T08:42:36;9.57;;;3.00;;
60492;SDS011;46341;51.290;-2.474;2023-03-16T08:45:04;8.23;;;2.55;;
60492;SDS011;46341;51.290;-2.474;2023-03-16T08:47:38;10.23;;;2.25;;
60492;SDS011;46341;51.290;-2.474;2023-03-16T08:50:08;12.75;;;2.72;;
60492;SDS011;46341;51.290;-2.474;2023-03-16T08:52:34;10.33;;;2.40;;
60492;SDS011;46341;51.290;-2.474;2023-03-16T08:55:06;9.20;;;2.58;;
60492;SDS011;46341;51.290;-2.474;2023-03-16T08:57:33;10.13;;;2.27;;
60492;SDS011;46341;51.290;-2.474;2023-03-16T08:59:59;8.43;;;1.92;;
60492;SDS011;46341;51.290;-2.474;2023-03-16T09:02:26;5.88;;;1.95;;
60492;SDS011;46341;51.290;-2.474;2023-03-16T09:04:53;6.80;;;1.80;;
60492;SDS011;46341;51.290;-2.474;2023-03-16T09:07:19;9.00;;;2.15;;
60492;SDS011;46341;51.290;-2.474;2023-03-16T09:09:46;7.20;;;2.47;;
60492;SDS011;46341;51.290;-2.474;2023-03-16T09:12:12;9.10;;;2.65;;
60492;SDS011;46341;51.290;-2.474;2023-03-16T09:14:38;9.43;;;2.40;;
60492;SDS011;46341;51.290;-2.474;2023-03-16T09:17:05;10.05;;;2.47;;
60492;SDS011;46341;51.290;-2.474;2023-03-16T09:19:36;10.15;;;2.47;;
60492;SDS011;46341;51.290;-2.474;2023-03-16T09:22:17;10.52;;;2.22;;
60492;SDS011;46341;51.290;-2.474;2023-03-16T09:27:11;7.43;;;2.00;;
60492;SDS011;46341;51.290;-2.474;2023-03-16T09:29:37;8.73;;;2.10;;
60492;SDS011;46341;51.290;-2.474;2023-03-16T09:32:04;8.07;;;1.77;;
60492;SDS011;46341;51.290;-2.474;2023-03-16T09:34:30;9.32;;;2.33;;
60492;SDS011;46341;51.290;-2.474;2023-03-16T09:36:58;8.95;;;1.92;;
60492;SDS011;46341;51.290;-2.474;2023-03-16T09:39:25;7.60;;;1.90;;
60492;SDS011;46341;51.290;-2.474;2023-03-16T09:42:03;8.88;;;2.05;;
60492;SDS011;46341;51.290;-2.474;2023-03-16T09:47:04;7.13;;;1.77;;
60492;SDS011;46341;51.290;-2.474;2023-03-16T09:49:35;8.73;;;1.90;;
60492;SDS011;46341;51.290;-2.474;2023-03-16T09:52:11;11.27;;;2.20;;
60492;SDS011;46341;51.290;-2.474;2023-03-16T09:57:17;10.45;;;1.80;;
60492;SDS011;46341;51.290;-2.474;2023-03-16T09:59:46;6.38;;;1.60;;
60492;SDS011;46341;51.290;-2.474;2023-03-16T10:02:27;9.75;;;2.10;;
60492;SDS011;46341;51.290;-2.474;2023-03-16T10:05:10;9.00;;;1.70;;
60492;SDS011;46341;51.290;-2.474;2023-03-16T10:12:58;7.63;;;1.80;;
60492;SDS011;46341;51.290;-2.474;2023-03-16T10:15:28;7.80;;;1.50;;
60492;SDS011;46341;51.290;-2.474;2023-03-16T10:18:00;8.40;;;1.80;;
60492;SDS011;46341;51.290;-2.474;2023-03-16T10:20:30;7.32;;;1.60;;
60492;SDS011;46341;51.290;-2.474;2023-03-16T10:22:58;7.50;;;1.30;;
60492;SDS011;46341;51.290;-2.474;2023-03-16T10:25:43;5.38;;;1.30;;
60492;SDS011;46341;51.290;-2.474;2023-03-16T10:28:12;6.47;;;1.25;;
60492;SDS011;46341;51.290;-2.474;2023-03-16T10:30:40;10.35;;;1.98;;
60492;SDS011;46341;51.290;-2.474;2023-03-16T10:40:56;5.43;;;1.38;;
60492;SDS011;46341;51.290;-2.474;2023-03-16T10:43:25;5.93;;;1.27;;
60492;SDS011;46341;51.290;-2.474;2023-03-16T10:45:56;9.75;;;1.85;;
60492;SDS011;46341;51.290;-2.474;2023-03-16T10:48:24;10.55;;;2.08;;
60492;SDS011;46341;51.290;-2.474;2023-03-16T10:50:54;7.22;;;1.73;;
60492;SDS011;46341;51.290;-2.474;2023-03-16T10:53:26;7.18;;;1.52;;
60492;SDS011;46341;51.290;-2.474;2023-03-16T10:55:57;6.82;;;1.52;;
60492;SDS011;46341;51.290;-2.474;2023-03-16T10:58:25;6.03;;;1.38;;
60492;SDS011;46341;51.290;-2.474;2023-03-16T11:00:55;6.13;;;1.38;;
60492;SDS011;46341;51.290;-2.474;2023-03-16T11:03:29;7.90;;;1.30;;
60492;SDS011;46341;51.290;-2.474;2023-03-16T11:06:02;6.80;;;1.40;;
60492;SDS011;46341;51.290;-2.474;2023-03-16T11:08:38;5.97;;;1.58;;
60492;SDS011;46341;51.290;-2.474;2023-03-16T11:11:16;6.93;;;1.52;;
60492;SDS011;46341;51.290;-2.474;2023-03-16T11:13:47;7.18;;;1.92;;
60492;SDS011;46341;51.290;-2.474;2023-03-16T11:18:46;8.95;;;1.52;;
60492;SDS011;46341;51.290;-2.474;2023-03-16T11:21:19;5.75;;;1.23;;
60492;SDS011;46341;51.290;-2.474;2023-03-16T11:23:48;5.40;;;1.48;;
60492;SDS011;46341;51.290;-2.474;2023-03-16T11:26:30;6.47;;;1.27;;
60492;SDS011;46341;51.290;-2.474;2023-03-16T11:29:04;8.02;;;1.75;;
60492;SDS011;46341;51.290;-2.474;2023-03-16T11:31:47;3.67;;;1.50;;
60492;SDS011;46341;51.290;-2.474;2023-03-16T11:34:20;7.20;;;1.70;;
60492;SDS011;46341;51.290;-2.474;2023-03-16T11:36:51;9.23;;;2.03;;
60492;SDS011;46341;51.290;-2.474;2023-03-16T11:42:32;7.50;;;1.80;;
60492;SDS011;46341;51.290;-2.474;2023-03-16T11:47:51;6.63;;;1.40;;
60492;SDS011;46341;51.290;-2.474;2023-03-16T11:55:32;4.53;;;1.55;;
60492;SDS011;46341;51.290;-2.474;2023-03-16T11:58:35;7.50;;;1.40;;
60492;SDS011;46341;51.290;-2.474;2023-03-16T12:03:27;6.28;;;1.67;;
60492;SDS011;46341;51.290;-2.474;2023-03-16T12:10:58;6.53;;;1.70;;
60492;SDS011;46341;51.290;-2.474;2023-03-16T12:18:44;5.70;;;1.80;;
60492;SDS011;46341;51.290;-2.474;2023-03-16T12:24:01;7.00;;;2.08;;
60492;SDS011;46341;51.290;-2.474;2023-03-16T12:26:31;6.18;;;2.10;;
60492;SDS011;46341;51.290;-2.474;2023-03-16T12:29:02;9.38;;;1.90;;
60492;SDS011;46341;51.290;-2.474;2023-03-16T12:31:36;7.78;;;2.10;;
60492;SDS011;46341;51.290;-2.474;2023-03-16T12:49:37;5.97;;;1.98;;
60492;SDS011;46341;51.290;-2.474;2023-03-16T12:52:05;7.40;;;2.30;;
60492;SDS011;46341;51.290;-2.474;2023-03-16T12:54:32;8.07;;;2.00;;
60492;SDS011;46341;51.290;-2.474;2023-03-16T12:57:00;6.95;;;1.98;;
60492;SDS011;46341;51.290;-2.474;2023-03-16T12:59:34;7.32;;;2.45;;
60492;SDS011;46341;51.290;-2.474;2023-03-16T13:02:01;7.95;;;1.88;;
60492;SDS011;46341;51.290;-2.474;2023-03-16T13:04:38;11.45;;;2.30;;
60492;SDS011;46341;51.290;-2.474;2023-03-16T13:07:16;7.88;;;1.88;;
60492;SDS011;46341;51.290;-2.474;2023-03-16T13:09:50;7.10;;;2.03;;
60492;SDS011;46341;51.290;-2.474;2023-03-16T13:12:21;6.15;;;2.10;;
60492;SDS011;46341;51.290;-2.474;2023-03-16T13:14:47;8.48;;;2.30;;
60492;SDS011;46341;51.290;-2.474;2023-03-16T13:22:26;8.55;;;1.92;;
60492;SDS011;46341;51.290;-2.474;2023-03-16T13:27:38;7.55;;;1.90;;
60492;SDS011;46341;51.290;-2.474;2023-03-16T13:33:08;6.15;;;1.95;;
60492;SDS011;46341;51.290;-2.474;2023-03-16T13:35:41;12.63;;;2.90;;
60492;SDS011;46341;51.290;-2.474;2023-03-16T13:38:12;8.57;;;2.58;;
60492;SDS011;46341;51.290;-2.474;2023-03-16T13:40:47;11.25;;;2.70;;
60492;SDS011;46341;51.290;-2.474;2023-03-16T13:43:14;9.13;;;2.85;;
60492;SDS011;46341;51.290;-2.474;2023-03-16T13:45:41;9.27;;;2.75;;
60492;SDS011;46341;51.290;-2.474;2023-03-16T13:48:11;8.30;;;2.88;;
60492;SDS011;46341;51.290;-2.474;2023-03-16T13:50:38;7.45;;;2.47;;
60492;SDS011;46341;51.290;-2.474;2023-03-16T13:53:17;10.45;;;3.03;;
60492;SDS011;46341;51.290;-2.474;2023-03-16T13:55:45;7.78;;;3.03;;
60492;SDS011;46341;51.290;-2.474;2023-03-16T13:58:22;10.93;;;3.00;;
60492;SDS011;46341;51.290;-2.474;2023-03-16T14:00:49;12.27;;;3.88;;
60492;SDS011;46341;51.290;-2.474;2023-03-16T14:03:20;9.25;;;3.30;;
60492;SDS011;46341;51.290;-2.474;2023-03-16T14:05:47;12.13;;;3.33;;
60492;SDS011;46341;51.290;-2.474;2023-03-16T14:08:16;12.65;;;3.42;;
60492;SDS011;46341;51.290;-2.474;2023-03-16T14:10:42;10.88;;;3.35;;
60492;SDS011;46341;51.290;-2.474;2023-03-16T14:16:17;9.23;;;3.28;;
60492;SDS011;46341;51.290;-2.474;2023-03-16T14:18:50;11.95;;;3.35;;
60492;SDS011;46341;51.290;-2.474;2023-03-16T14:21:24;8.82;;;3.42;;
60492;SDS011;46341;51.290;-2.474;2023-03-16T14:23:58;11.68;;;3.88;;
60492;SDS011;46341;51.290;-2.474;2023-03-16T14:26:25;12.35;;;3.53;;
60492;SDS011;46341;51.290;-2.474;2023-03-16T14:28:53;8.77;;;3.37;;
60492;SDS011;46341;51.290;-2.474;2023-03-16T14:31:20;9.07;;;3.40;;
60492;SDS011;46341;51.290;-2.474;2023-03-16T14:33:47;12.40;;;3.57;;
60492;SDS011;46341;51.290;-2.474;2023-03-16T14:36:14;11.02;;;3.58;;
60492;SDS011;46341;51.290;-2.474;2023-03-16T14:38:41;9.70;;;3.83;;
60492;SDS011;46341;51.290;-2.474;2023-03-16T14:43:35;9.75;;;3.20;;
60492;SDS011;46341;51.290;-2.474;2023-03-16T14:46:04;9.55;;;3.72;;
60492;SDS011;46341;51.290;-2.474;2023-03-16T14:50:58;9.90;;;3.88;;
60492;SDS011;46341;51.290;-2.474;2023-03-16T14:53:26;7.78;;;4.00;;
60492;SDS011;46341;51.290;-2.474;2023-03-16T14:55:57;10.45;;;4.00;;
60492;SDS011;46341;51.290;-2.474;2023-03-16T14:58:23;10.88;;;3.67;;
60492;SDS011;46341;51.290;-2.474;2023-03-16T15:00:50;12.75;;;4.05;;
60492;SDS011;46341;51.290;-2.474;2023-03-16T15:03:19;11.02;;;4.28;;
60492;SDS011;46341;51.290;-2.474;2023-03-16T15:05:47;10.38;;;4.05;;
60492;SDS011;46341;51.290;-2.474;2023-03-16T15:10:40;11.00;;;3.85;;
60492;SDS011;46341;51.290;-2.474;2023-03-16T15:13:12;11.90;;;3.92;;
60492;SDS011;46341;51.290;-2.474;2023-03-16T15:15:39;10.20;;;4.15;;
60492;SDS011;46341;51.290;-2.474;2023-03-16T15:18:09;9.52;;;3.65;;
60492;SDS011;46341;51.290;-2.474;2023-03-16T15:20:39;10.65;;;3.22;;
60492;SDS011;46341;51.290;-2.474;2023-03-16T15:23:08;12.05;;;4.13;;
60492;SDS011;46341;51.290;-2.474;2023-03-16T15:25:36;11.15;;;3.45;;
60492;SDS011;46341;51.290;-2.474;2023-03-16T15:30:30;8.77;;;3.53;;
60492;SDS011;46341;51.290;-2.474;2023-03-16T15:32:57;12.85;;;3.83;;
60492;SDS011;46341;51.290;-2.474;2023-03-16T15:35:24;11.13;;;4.35;;
60492;SDS011;46341;51.290;-2.474;2023-03-16T15:37:51;13.98;;;4.63;;
60492;SDS011;46341;51.290;-2.474;2023-03-16T15:40:21;12.75;;;4.32;;
60492;SDS011;46341;51.290;-2.474;2023-03-16T15:42:48;12.27;;;3.83;;
60492;SDS011;46341;51.290;-2.474;2023-03-16T15:45:17;15.70;;;4.00;;
60492;SDS011;46341;51.290;-2.474;2023-03-16T15:47:46;8.63;;;3.45;;
60492;SDS011;46341;51.290;-2.474;2023-03-16T15:50:13;13.73;;;3.95;;
60492;SDS011;46341;51.290;-2.474;2023-03-16T15:52:45;9.60;;;3.90;;
60492;SDS011;46341;51.290;-2.474;2023-03-16T15:55:16;12.93;;;4.63;;
60492;SDS011;46341;51.290;-2.474;2023-03-16T15:57:44;13.30;;;4.65;;
60492;SDS011;46341;51.290;-2.474;2023-03-16T16:00:16;13.65;;;4.57;;
60492;SDS011;46341;51.290;-2.474;2023-03-16T16:02:47;11.35;;;4.50;;
60492;SDS011;46341;51.290;-2.474;2023-03-16T16:05:14;11.15;;;5.40;;
60492;SDS011;46341;51.290;-2.474;2023-03-16T16:07:40;13.40;;;5.38;;
60492;SDS011;46341;51.290;-2.474;2023-03-16T16:10:08;9.73;;;4.38;;
60492;SDS011;46341;51.290;-2.474;2023-03-16T16:12:37;15.13;;;6.22;;
60492;SDS011;46341;51.290;-2.474;2023-03-16T16:15:17;17.08;;;5.32;;
60492;SDS011;46341;51.290;-2.474;2023-03-16T16:17:45;17.65;;;5.97;;
60492;SDS011;46341;51.290;-2.474;2023-03-16T16:20:31;17.98;;;6.22;;
60492;SDS011;46341;51.290;-2.474;2023-03-16T16:22:58;14.57;;;6.30;;